sensor_id;sensor_type;location;lat;lon;timestamp;P1;durP1;ratioP1;P2;durP2;ratioP2
74241;SDS011;62599;49.146;10.426;2023-10-13T00:01:57;11.50;;;6.50;;
74241;SDS011;62599;49.146;10.426;2023-10-13T00:05:23;12.18;;;6.25;;
74241;SDS011;62599;49.146;10.426;2023-10-13T00:08:17;9.38;;;5.60;;
74241;SDS011;62599;49.146;10.426;2023-10-13T00:11:13;14.27;;;5.45;;
74241;SDS011;62599;49.146;10.426;2023-10-13T00:20:34;10.93;;;6.35;;
74241;SDS011;62599;49.146;10.426;2023-10-13T00:23:21;12.43;;;6.85;;
74241;SDS011;62599;49.146;10.426;2023-10-13T00:26:12;11.77;;;6.22;;
74241;SDS011;62599;49.146;10.426;2023-10-13T00:36:12;10.70;;;5.50;;
74241;SDS011;62599;49.146;10.426;2023-10-13T00:39:35;10.63;;;5.60;;
74241;SDS011;62599;49.146;10.426;2023-10-13T00:42:26;12.23;;;6.55;;
74241;SDS011;62599;49.146;10.426;2023-10-13T00:51:52;13.27;;;6.28;;
74241;SDS011;62599;49.146;10.426;2023-10-13T01:02:13;11.55;;;5.90;;
74241;SDS011;62599;49.146;10.426;2023-10-13T01:05:44;10.15;;;6.28;;
74241;SDS011;62599;49.146;10.426;2023-10-13T01:09:09;11.23;;;5.82;;
74241;SDS011;62599;49.146;10.426;2023-10-13T01:11:45;12.70;;;6.88;;
74241;SDS011;62599;49.146;10.426;2023-10-13T01:14:32;15.27;;;8.02;;
74241;SDS011;62599;49.146;10.426;2023-10-13T01:17:02;11.68;;;6.82;;
74241;SDS011;62599;49.146;10.426;2023-10-13T01:19:36;12.60;;;6.22;;
74241;SDS011;62599;49.146;10.426;2023-10-13T01:22:23;9.95;;;6.00;;
74241;SDS011;62599;49.146;10.426;2023-10-13T01:25:22;9.18;;;6.25;;
74241;SDS011;62599;49.146;10.426;2023-10-13T01:29:00;11.65;;;6.28;;
74241;SDS011;62599;49.146;10.426;2023-10-13T01:35:07;9.57;;;6.07;;
74241;SDS011;62599;49.146;10.426;2023-10-13T01:38:40;17.95;;;8.27;;
74241;SDS011;62599;49.146;10.426;2023-10-13T01:41:31;16.48;;;7.32;;
74241;SDS011;62599;49.146;10.426;2023-10-13T01:44:52;15.18;;;7.53;;
74241;SDS011;62599;49.146;10.426;2023-10-13T01:51:33;13.35;;;6.90;;
74241;SDS011;62599;49.146;10.426;2023-10-13T01:56:43;12.85;;;6.43;;
74241;SDS011;62599;49.146;10.426;2023-10-13T01:59:21;15.38;;;7.30;;
74241;SDS011;62599;49.146;10.426;2023-10-13T02:01:54;16.08;;;8.52;;
74241;SDS011;62599;49.146;10.426;2023-10-13T02:04:45;14.10;;;7.60;;
74241;SDS011;62599;49.146;10.426;2023-10-13T02:07:22;10.98;;;5.90;;
74241;SDS011;62599;49.146;10.426;2023-10-13T02:09:54;11.23;;;7.32;;
74241;SDS011;62599;49.146;10.426;2023-10-13T02:12:20;16.27;;;7.38;;
74241;SDS011;62599;49.146;10.426;2023-10-13T02:15:01;14.75;;;7.45;;
74241;SDS011;62599;49.146;10.426;2023-10-13T02:17:29;13.40;;;7.38;;
74241;SDS011;62599;49.146;10.426;2023-10-13T02:20:05;17.85;;;7.53;;
74241;SDS011;62599;49.146;10.426;2023-10-13T02:22:33;14.98;;;7.05;;
74241;SDS011;62599;49.146;10.426;2023-10-13T02:24:58;17.30;;;8.18;;
74241;SDS011;62599;49.146;10.426;2023-10-13T02:27:26;17.70;;;7.80;;
74241;SDS011;62599;49.146;10.426;2023-10-13T02:29:52;10.35;;;6.60;;
74241;SDS011;62599;49.146;10.426;2023-10-13T02:32:23;8.60;;;5.22;;
74241;SDS011;62599;49.146;10.426;2023-10-13T02:34:49;13.68;;;5.82;;
74241;SDS011;62599;49.146;10.426;2023-10-13T02:37:14;19.57;;;6.73;;
74241;SDS011;62599;49.146;10.426;2023-10-13T02:39:41;12.10;;;5.20;;
74241;SDS011;62599;49.146;10.426;2023-10-13T02:42:07;9.43;;;4.83;;
74241;SDS011;62599;49.146;10.426;2023-10-13T02:44:36;13.88;;;6.10;;
74241;SDS011;62599;49.146;10.426;2023-10-13T02:47:02;10.52;;;5.68;;
74241;SDS011;62599;49.146;10.426;2023-10-13T02:49:38;9.77;;;5.47;;
74241;SDS011;62599;49.146;10.426;2023-10-13T02:52:08;19.60;;;6.78;;
74241;SDS011;62599;49.146;10.426;2023-10-13T02:54:34;17.30;;;6.53;;
74241;SDS011;62599;49.146;10.426;2023-10-13T02:57:05;13.20;;;5.85;;
74241;SDS011;62599;49.146;10.426;2023-10-13T02:59:31;13.77;;;6.78;;
74241;SDS011;62599;49.146;10.426;2023-10-13T03:02:20;9.57;;;5.88;;
74241;SDS011;62599;49.146;10.426;2023-10-13T03:04:50;10.07;;;5.30;;
74241;SDS011;62599;49.146;10.426;2023-10-13T03:07:45;9.13;;;5.97;;
74241;SDS011;62599;49.146;10.426;2023-10-13T03:10:11;9.77;;;5.37;;
74241;SDS011;62599;49.146;10.426;2023-10-13T03:12:36;14.00;;;6.50;;
74241;SDS011;62599;49.146;10.426;2023-10-13T03:15:03;12.65;;;5.55;;
74241;SDS011;62599;49.146;10.426;2023-10-13T03:17:42;10.93;;;6.80;;
74241;SDS011;62599;49.146;10.426;2023-10-13T03:20:17;16.63;;;6.40;;
74241;SDS011;62599;49.146;10.426;2023-10-13T03:22:47;15.98;;;6.25;;
74241;SDS011;62599;49.146;10.426;2023-10-13T03:25:17;15.02;;;7.50;;
74241;SDS011;62599;49.146;10.426;2023-10-13T03:27:49;15.15;;;6.65;;
74241;SDS011;62599;49.146;10.426;2023-10-13T03:30:18;14.77;;;6.68;;
74241;SDS011;62599;49.146;10.426;2023-10-13T03:32:45;9.95;;;5.50;;
74241;SDS011;62599;49.146;10.426;2023-10-13T03:35:13;14.95;;;7.22;;
74241;SDS011;62599;49.146;10.426;2023-10-13T03:37:49;11.48;;;6.60;;
74241;SDS011;62599;49.146;10.426;2023-10-13T03:40:15;13.40;;;6.50;;
74241;SDS011;62599;49.146;10.426;2023-10-13T03:45:32;16.67;;;6.20;;
74241;SDS011;62599;49.146;10.426;2023-10-13T03:48:01;17.27;;;6.45;;
74241;SDS011;62599;49.146;10.426;2023-10-13T03:50:34;13.38;;;5.40;;
74241;SDS011;62599;49.146;10.426;2023-10-13T03:55:38;8.25;;;3.55;;
74241;SDS011;62599;49.146;10.426;2023-10-13T03:58:03;10.13;;;4.18;;
74241;SDS011;62599;49.146;10.426;2023-10-13T04:00:29;12.02;;;4.35;;
74241;SDS011;62599;49.146;10.426;2023-10-13T04:02:56;11.88;;;4.70;;
74241;SDS011;62599;49.146;10.426;2023-10-13T04:05:33;11.40;;;5.55;;
74241;SDS011;62599;49.146;10.426;2023-10-13T04:08:05;7.57;;;4.72;;
74241;SDS011;62599;49.146;10.426;2023-10-13T04:10:51;13.13;;;5.40;;
74241;SDS011;62599;49.146;10.426;2023-10-13T04:13:17;8.32;;;5.10;;
74241;SDS011;62599;49.146;10.426;2023-10-13T04:16:03;12.48;;;4.47;;
74241;SDS011;62599;49.146;10.426;2023-10-13T04:18:48;10.52;;;5.50;;
74241;SDS011;62599;49.146;10.426;2023-10-13T04:21:19;15.02;;;5.20;;
74241;SDS011;62599;49.146;10.426;2023-10-13T04:24:07;10.88;;;5.15;;
74241;SDS011;62599;49.146;10.426;2023-10-13T04:26:52;10.57;;;5.03;;
74241;SDS011;62599;49.146;10.426;2023-10-13T04:30:15;7.82;;;4.80;;
74241;SDS011;62599;49.146;10.426;2023-10-13T04:33:38;10.88;;;5.25;;
74241;SDS011;62599;49.146;10.426;2023-10-13T04:36:17;10.38;;;4.95;;
74241;SDS011;62599;49.146;10.426;2023-10-13T04:39:01;9.02;;;5.30;;
74241;SDS011;62599;49.146;10.426;2023-10-13T04:41:31;12.48;;;5.43;;
74241;SDS011;62599;49.146;10.426;2023-10-13T04:44:03;15.23;;;4.63;;
74241;SDS011;62599;49.146;10.426;2023-10-13T04:46:47;6.60;;;4.57;;
74241;SDS011;62599;49.146;10.426;2023-10-13T04:49:13;13.37;;;4.00;;
74241;SDS011;62599;49.146;10.426;2023-10-13T04:51:58;9.60;;;5.05;;
74241;SDS011;62599;49.146;10.426;2023-10-13T04:54:26;11.20;;;4.43;;
74241;SDS011;62599;49.146;10.426;2023-10-13T04:57:01;10.27;;;4.80;;
74241;SDS011;62599;49.146;10.426;2023-10-13T04:59:46;7.03;;;3.55;;
74241;SDS011;62599;49.146;10.426;2023-10-13T05:02:31;6.28;;;3.67;;
74241;SDS011;62599;49.146;10.426;2023-10-13T05:05:03;5.97;;;3.47;;
74241;SDS011;62599;49.146;10.426;2023-10-13T05:07:34;7.03;;;4.55;;
74241;SDS011;62599;49.146;10.426;2023-10-13T05:10:18;10.57;;;4.38;;
74241;SDS011;62599;49.146;10.426;2023-10-13T05:13:02;9.00;;;4.60;;
74241;SDS011;62599;49.146;10.426;2023-10-13T05:15:48;6.43;;;4.15;;
74241;SDS011;62599;49.146;10.426;2023-10-13T05:18:33;7.07;;;3.78;;
74241;SDS011;62599;49.146;10.426;2023-10-13T05:21:17;8.73;;;4.43;;
74241;SDS011;62599;49.146;10.426;2023-10-13T05:24:01;12.40;;;4.38;;
74241;SDS011;62599;49.146;10.426;2023-10-13T05:26:46;7.72;;;4.45;;
74241;SDS011;62599;49.146;10.426;2023-10-13T05:32:13;9.90;;;4.45;;
74241;SDS011;62599;49.146;10.426;2023-10-13T05:34:57;7.50;;;4.20;;
74241;SDS011;62599;49.146;10.426;2023-10-13T05:37:41;8.52;;;5.15;;
74241;SDS011;62599;49.146;10.426;2023-10-13T05:40:26;8.32;;;4.43;;
74241;SDS011;62599;49.146;10.426;2023-10-13T05:43:10;12.75;;;4.78;;
74241;SDS011;62599;49.146;10.426;2023-10-13T05:46:00;8.43;;;4.20;;
74241;SDS011;62599;49.146;10.426;2023-10-13T05:54:12;6.60;;;4.15;;
74241;SDS011;62599;49.146;10.426;2023-10-13T05:56:44;6.15;;;3.60;;
74241;SDS011;62599;49.146;10.426;2023-10-13T05:59:29;7.68;;;4.57;;
74241;SDS011;62599;49.146;10.426;2023-10-13T06:02:14;11.15;;;4.28;;
74241;SDS011;62599;49.146;10.426;2023-10-13T06:05:06;12.77;;;4.60;;
74241;SDS011;62599;49.146;10.426;2023-10-13T06:07:55;8.15;;;3.60;;
74241;SDS011;62599;49.146;10.426;2023-10-13T06:10:39;7.18;;;4.45;;
74241;SDS011;62599;49.146;10.426;2023-10-13T06:13:24;9.88;;;3.88;;
74241;SDS011;62599;49.146;10.426;2023-10-13T06:16:08;6.75;;;4.55;;
74241;SDS011;62599;49.146;10.426;2023-10-13T06:18:56;9.77;;;4.28;;
74241;SDS011;62599;49.146;10.426;2023-10-13T06:21:41;7.65;;;4.55;;
74241;SDS011;62599;49.146;10.426;2023-10-13T06:24:25;5.88;;;3.63;;
74241;SDS011;62599;49.146;10.426;2023-10-13T06:27:09;9.70;;;3.85;;
74241;SDS011;62599;49.146;10.426;2023-10-13T06:29:53;5.82;;;3.08;;
74241;SDS011;62599;49.146;10.426;2023-10-13T06:32:22;8.30;;;4.07;;
74241;SDS011;62599;49.146;10.426;2023-10-13T06:34:54;10.07;;;3.75;;
74241;SDS011;62599;49.146;10.426;2023-10-13T06:37:26;9.65;;;3.97;;
74241;SDS011;62599;49.146;10.426;2023-10-13T06:39:56;6.57;;;3.40;;
74241;SDS011;62599;49.146;10.426;2023-10-13T06:42:24;8.38;;;3.85;;
74241;SDS011;62599;49.146;10.426;2023-10-13T06:44:52;5.78;;;3.13;;
74241;SDS011;62599;49.146;10.426;2023-10-13T06:47:19;7.35;;;3.88;;
74241;SDS011;62599;49.146;10.426;2023-10-13T06:49:45;5.70;;;3.08;;
74241;SDS011;62599;49.146;10.426;2023-10-13T06:52:13;5.43;;;3.58;;
74241;SDS011;62599;49.146;10.426;2023-10-13T06:54:41;6.13;;;3.90;;
74241;SDS011;62599;49.146;10.426;2023-10-13T06:57:08;6.22;;;3.60;;
74241;SDS011;62599;49.146;10.426;2023-10-13T06:59:39;8.38;;;2.65;;
74241;SDS011;62599;49.146;10.426;2023-10-13T07:02:05;8.43;;;3.67;;
74241;SDS011;62599;49.146;10.426;2023-10-13T07:04:32;8.52;;;3.40;;
74241;SDS011;62599;49.146;10.426;2023-10-13T07:06:57;4.18;;;2.45;;
74241;SDS011;62599;49.146;10.426;2023-10-13T07:09:25;6.85;;;2.83;;
74241;SDS011;62599;49.146;10.426;2023-10-13T07:12:15;7.18;;;3.45;;
74241;SDS011;62599;49.146;10.426;2023-10-13T07:14:58;7.55;;;3.30;;
74241;SDS011;62599;49.146;10.426;2023-10-13T07:17:41;5.40;;;2.65;;
74241;SDS011;62599;49.146;10.426;2023-10-13T07:20:09;7.20;;;3.38;;
74241;SDS011;62599;49.146;10.426;2023-10-13T07:22:53;13.98;;;3.67;;
74241;SDS011;62599;49.146;10.426;2023-10-13T07:25:36;7.28;;;3.35;;
74241;SDS011;62599;49.146;10.426;2023-10-13T07:28:06;9.55;;;3.53;;
74241;SDS011;62599;49.146;10.426;2023-10-13T07:30:35;4.47;;;3.40;;
74241;SDS011;62599;49.146;10.426;2023-10-13T07:33:13;5.32;;;3.60;;
74241;SDS011;62599;49.146;10.426;2023-10-13T07:35:39;6.00;;;3.28;;
74241;SDS011;62599;49.146;10.426;2023-10-13T07:38:04;7.18;;;3.80;;
74241;SDS011;62599;49.146;10.426;2023-10-13T07:40:33;4.80;;;3.00;;
74241;SDS011;62599;49.146;10.426;2023-10-13T07:42:58;3.42;;;2.83;;
74241;SDS011;62599;49.146;10.426;2023-10-13T07:45:28;6.53;;;3.28;;
74241;SDS011;62599;49.146;10.426;2023-10-13T07:48:03;6.78;;;3.70;;
74241;SDS011;62599;49.146;10.426;2023-10-13T07:50:37;7.60;;;4.63;;
74241;SDS011;62599;49.146;10.426;2023-10-13T07:53:05;6.20;;;3.85;;
74241;SDS011;62599;49.146;10.426;2023-10-13T07:55:43;6.35;;;3.65;;
74241;SDS011;62599;49.146;10.426;2023-10-13T07:58:10;6.53;;;3.08;;
74241;SDS011;62599;49.146;10.426;2023-10-13T08:00:37;7.72;;;3.53;;
74241;SDS011;62599;49.146;10.426;2023-10-13T08:03:08;7.43;;;3.70;;
74241;SDS011;62599;49.146;10.426;2023-10-13T08:05:42;7.18;;;3.70;;
74241;SDS011;62599;49.146;10.426;2023-10-13T08:08:29;11.95;;;2.75;;
74241;SDS011;62599;49.146;10.426;2023-10-13T08:11:05;5.43;;;3.88;;
74241;SDS011;62599;49.146;10.426;2023-10-13T08:13:43;7.35;;;3.88;;
74241;SDS011;62599;49.146;10.426;2023-10-13T08:16:19;7.75;;;3.55;;
74241;SDS011;62599;49.146;10.426;2023-10-13T08:19:13;14.45;;;3.75;;
74241;SDS011;62599;49.146;10.426;2023-10-13T08:21:40;5.32;;;3.40;;
74241;SDS011;62599;49.146;10.426;2023-10-13T08:24:15;6.28;;;3.55;;
74241;SDS011;62599;49.146;10.426;2023-10-13T08:26:41;5.60;;;2.90;;
74241;SDS011;62599;49.146;10.426;2023-10-13T08:29:22;9.27;;;3.78;;
74241;SDS011;62599;49.146;10.426;2023-10-13T08:31:49;5.03;;;2.45;;
74241;SDS011;62599;49.146;10.426;2023-10-13T08:34:35;10.73;;;3.90;;
74241;SDS011;62599;49.146;10.426;2023-10-13T08:37:28;6.55;;;3.33;;
74241;SDS011;62599;49.146;10.426;2023-10-13T08:39:58;8.93;;;3.63;;
74241;SDS011;62599;49.146;10.426;2023-10-13T08:42:28;6.68;;;3.25;;
74241;SDS011;62599;49.146;10.426;2023-10-13T08:45:18;5.63;;;3.25;;
74241;SDS011;62599;49.146;10.426;2023-10-13T08:47:56;8.13;;;3.38;;
74241;SDS011;62599;49.146;10.426;2023-10-13T08:55:55;16.95;;;3.38;;
74241;SDS011;62599;49.146;10.426;2023-10-13T08:58:36;11.10;;;3.38;;
74241;SDS011;62599;49.146;10.426;2023-10-13T09:04:08;7.80;;;3.30;;
74241;SDS011;62599;49.146;10.426;2023-10-13T09:07:02;5.40;;;3.20;;
74241;SDS011;62599;49.146;10.426;2023-10-13T09:12:16;9.30;;;3.42;;
74241;SDS011;62599;49.146;10.426;2023-10-13T09:14:52;8.60;;;4.00;;
74241;SDS011;62599;49.146;10.426;2023-10-13T09:17:30;7.80;;;3.40;;
74241;SDS011;62599;49.146;10.426;2023-10-13T09:20:06;7.57;;;3.42;;
74241;SDS011;62599;49.146;10.426;2023-10-13T09:22:50;4.70;;;3.50;;
74241;SDS011;62599;49.146;10.426;2023-10-13T09:25:29;4.32;;;3.00;;
74241;SDS011;62599;49.146;10.426;2023-10-13T09:28:01;6.60;;;3.63;;
74241;SDS011;62599;49.146;10.426;2023-10-13T09:30:35;15.35;;;3.65;;
74241;SDS011;62599;49.146;10.426;2023-10-13T09:33:07;9.00;;;3.65;;
74241;SDS011;62599;49.146;10.426;2023-10-13T09:35:44;6.57;;;3.25;;
74241;SDS011;62599;49.146;10.426;2023-10-13T09:38:19;9.30;;;3.67;;
74241;SDS011;62599;49.146;10.426;2023-10-13T09:40:45;6.05;;;3.00;;
74241;SDS011;62599;49.146;10.426;2023-10-13T09:43:15;5.90;;;3.35;;
74241;SDS011;62599;49.146;10.426;2023-10-13T09:45:43;8.20;;;3.22;;
74241;SDS011;62599;49.146;10.426;2023-10-13T09:51:02;5.80;;;3.78;;
74241;SDS011;62599;49.146;10.426;2023-10-13T09:53:34;5.90;;;3.65;;
74241;SDS011;62599;49.146;10.426;2023-10-13T09:56:47;4.00;;;1.85;;
74241;SDS011;62599;49.146;10.426;2023-10-13T09:59:14;7.78;;;2.60;;
74241;SDS011;62599;49.146;10.426;2023-10-13T10:04:16;4.15;;;3.00;;
74241;SDS011;62599;49.146;10.426;2023-10-13T10:06:51;8.70;;;2.90;;
74241;SDS011;62599;49.146;10.426;2023-10-13T10:09:17;7.95;;;3.67;;
74241;SDS011;62599;49.146;10.426;2023-10-13T10:14:40;5.68;;;2.88;;
74241;SDS011;62599;49.146;10.426;2023-10-13T10:17:21;4.38;;;2.42;;
74241;SDS011;62599;49.146;10.426;2023-10-13T10:19:51;4.32;;;2.17;;
74241;SDS011;62599;49.146;10.426;2023-10-13T10:22:39;8.25;;;2.50;;
74241;SDS011;62599;49.146;10.426;2023-10-13T10:25:09;8.70;;;2.28;;
74241;SDS011;62599;49.146;10.426;2023-10-13T10:28:00;9.48;;;2.63;;
74241;SDS011;62599;49.146;10.426;2023-10-13T10:30:31;4.22;;;2.28;;
74241;SDS011;62599;49.146;10.426;2023-10-13T10:33:03;3.50;;;2.28;;
74241;SDS011;62599;49.146;10.426;2023-10-13T10:35:37;4.07;;;2.42;;
74241;SDS011;62599;49.146;10.426;2023-10-13T10:38:14;6.50;;;2.65;;
74241;SDS011;62599;49.146;10.426;2023-10-13T10:40:58;7.38;;;2.53;;
74241;SDS011;62599;49.146;10.426;2023-10-13T10:48:38;4.80;;;2.45;;
74241;SDS011;62599;49.146;10.426;2023-10-13T10:51:08;2.83;;;1.92;;
74241;SDS011;62599;49.146;10.426;2023-10-13T10:53:47;3.40;;;2.33;;
74241;SDS011;62599;49.146;10.426;2023-10-13T10:56:14;3.75;;;2.33;;
74241;SDS011;62599;49.146;10.426;2023-10-13T10:58:59;5.97;;;1.65;;
74241;SDS011;62599;49.146;10.426;2023-10-13T11:01:29;4.25;;;2.85;;
74241;SDS011;62599;49.146;10.426;2023-10-13T11:06:50;10.18;;;1.63;;
74241;SDS011;62599;49.146;10.426;2023-10-13T11:09:38;8.18;;;3.17;;
74241;SDS011;62599;49.146;10.426;2023-10-13T11:12:11;5.43;;;2.80;;
74241;SDS011;62599;49.146;10.426;2023-10-13T11:14:42;7.90;;;2.08;;
74241;SDS011;62599;49.146;10.426;2023-10-13T11:17:18;5.30;;;2.45;;
74241;SDS011;62599;49.146;10.426;2023-10-13T11:19:51;5.55;;;3.15;;
74241;SDS011;62599;49.146;10.426;2023-10-13T11:22:18;4.25;;;2.97;;
74241;SDS011;62599;49.146;10.426;2023-10-13T11:25:06;5.10;;;2.97;;
74241;SDS011;62599;49.146;10.426;2023-10-13T11:27:36;8.20;;;2.72;;
74241;SDS011;62599;49.146;10.426;2023-10-13T11:30:24;5.57;;;3.63;;
74241;SDS011;62599;49.146;10.426;2023-10-13T11:35:32;4.63;;;2.55;;
74241;SDS011;62599;49.146;10.426;2023-10-13T11:38:17;3.38;;;2.75;;
74241;SDS011;62599;49.146;10.426;2023-10-13T11:41:02;6.32;;;2.97;;
74241;SDS011;62599;49.146;10.426;2023-10-13T11:46:11;10.63;;;2.67;;
74241;SDS011;62599;49.146;10.426;2023-10-13T11:48:37;4.80;;;2.92;;
74241;SDS011;62599;49.146;10.426;2023-10-13T11:51:03;4.88;;;2.33;;
74241;SDS011;62599;49.146;10.426;2023-10-13T11:56:00;7.25;;;2.83;;
74241;SDS011;62599;49.146;10.426;2023-10-13T11:58:26;7.25;;;2.97;;
74241;SDS011;62599;49.146;10.426;2023-10-13T12:00:53;3.67;;;2.42;;
74241;SDS011;62599;49.146;10.426;2023-10-13T12:03:26;4.80;;;3.08;;
74241;SDS011;62599;49.146;10.426;2023-10-13T12:06:10;5.45;;;2.50;;
74241;SDS011;62599;49.146;10.426;2023-10-13T12:08:48;5.38;;;3.40;;
74241;SDS011;62599;49.146;10.426;2023-10-13T12:11:17;6.43;;;1.92;;
74241;SDS011;62599;49.146;10.426;2023-10-13T12:14:03;4.20;;;3.22;;
74241;SDS011;62599;49.146;10.426;2023-10-13T12:16:37;6.80;;;3.08;;
74241;SDS011;62599;49.146;10.426;2023-10-13T12:19:05;6.53;;;3.08;;
74241;SDS011;62599;49.146;10.426;2023-10-13T12:21:39;10.18;;;3.65;;
74241;SDS011;62599;49.146;10.426;2023-10-13T12:24:12;5.90;;;3.22;;
74241;SDS011;62599;49.146;10.426;2023-10-13T12:26:48;6.00;;;3.60;;
74241;SDS011;62599;49.146;10.426;2023-10-13T12:29:20;12.27;;;3.20;;
74241;SDS011;62599;49.146;10.426;2023-10-13T12:31:48;3.25;;;1.80;;
74241;SDS011;62599;49.146;10.426;2023-10-13T12:34:26;4.57;;;3.47;;
74241;SDS011;62599;49.146;10.426;2023-10-13T12:37:11;3.67;;;2.67;;
74241;SDS011;62599;49.146;10.426;2023-10-13T12:39:57;7.70;;;2.60;;
74241;SDS011;62599;49.146;10.426;2023-10-13T12:42:41;5.63;;;3.45;;
74241;SDS011;62599;49.146;10.426;2023-10-13T12:45:25;5.60;;;2.60;;
74241;SDS011;62599;49.146;10.426;2023-10-13T12:48:09;3.28;;;2.72;;
74241;SDS011;62599;49.146;10.426;2023-10-13T12:50:53;5.03;;;3.13;;
74241;SDS011;62599;49.146;10.426;2023-10-13T12:53:32;5.57;;;2.63;;
74241;SDS011;62599;49.146;10.426;2023-10-13T12:55:58;13.70;;;2.92;;
74241;SDS011;62599;49.146;10.426;2023-10-13T12:58:31;5.43;;;2.65;;
74241;SDS011;62599;49.146;10.426;2023-10-13T13:01:00;6.05;;;1.40;;
74241;SDS011;62599;49.146;10.426;2023-10-13T13:03:31;8.10;;;2.60;;
74241;SDS011;62599;49.146;10.426;2023-10-13T13:05:57;9.52;;;3.30;;
74241;SDS011;62599;49.146;10.426;2023-10-13T13:08:23;7.05;;;2.55;;
74241;SDS011;62599;49.146;10.426;2023-10-13T13:10:48;9.98;;;3.13;;
74241;SDS011;62599;49.146;10.426;2023-10-13T13:13:14;4.68;;;2.75;;
74241;SDS011;62599;49.146;10.426;2023-10-13T13:15:41;6.72;;;3.13;;
74241;SDS011;62599;49.146;10.426;2023-10-13T13:18:07;3.83;;;2.80;;
74241;SDS011;62599;49.146;10.426;2023-10-13T13:20:37;7.85;;;2.78;;
74241;SDS011;62599;49.146;10.426;2023-10-13T13:23:04;5.88;;;2.95;;
74241;SDS011;62599;49.146;10.426;2023-10-13T13:25:30;5.57;;;2.65;;
74241;SDS011;62599;49.146;10.426;2023-10-13T13:27:56;4.00;;;2.17;;
74241;SDS011;62599;49.146;10.426;2023-10-13T13:30:25;3.33;;;2.60;;
74241;SDS011;62599;49.146;10.426;2023-10-13T13:32:58;3.95;;;2.22;;
74241;SDS011;62599;49.146;10.426;2023-10-13T13:35:28;5.68;;;2.65;;
74241;SDS011;62599;49.146;10.426;2023-10-13T13:37:59;4.03;;;2.42;;
74241;SDS011;62599;49.146;10.426;2023-10-13T13:40:35;4.18;;;2.55;;
74241;SDS011;62599;49.146;10.426;2023-10-13T13:43:02;9.35;;;2.42;;
74241;SDS011;62599;49.146;10.426;2023-10-13T13:45:27;5.20;;;2.75;;
74241;SDS011;62599;49.146;10.426;2023-10-13T13:47:53;2.77;;;2.50;;
74241;SDS011;62599;49.146;10.426;2023-10-13T13:50:25;5.63;;;1.70;;
74241;SDS011;62599;49.146;10.426;2023-10-13T13:52:53;5.80;;;2.53;;
74241;SDS011;62599;49.146;10.426;2023-10-13T13:55:22;10.38;;;3.53;;
74241;SDS011;62599;49.146;10.426;2023-10-13T13:57:48;6.45;;;3.30;;
74241;SDS011;62599;49.146;10.426;2023-10-13T14:00:16;6.45;;;1.63;;
74241;SDS011;62599;49.146;10.426;2023-10-13T14:02:46;9.32;;;3.58;;
74241;SDS011;62599;49.146;10.426;2023-10-13T14:05:15;4.97;;;2.17;;
74241;SDS011;62599;49.146;10.426;2023-10-13T14:07:44;10.80;;;2.72;;
74241;SDS011;62599;49.146;10.426;2023-10-13T14:10:14;7.80;;;1.80;;
74241;SDS011;62599;49.146;10.426;2023-10-13T14:12:57;7.65;;;3.50;;
74241;SDS011;62599;49.146;10.426;2023-10-13T14:15:31;7.50;;;3.42;;
74241;SDS011;62599;49.146;10.426;2023-10-13T14:18:04;6.75;;;2.83;;
74241;SDS011;62599;49.146;10.426;2023-10-13T14:20:32;8.95;;;2.78;;
74241;SDS011;62599;49.146;10.426;2023-10-13T14:23:04;4.93;;;3.28;;
74241;SDS011;62599;49.146;10.426;2023-10-13T14:25:32;5.30;;;2.47;;
74241;SDS011;62599;49.146;10.426;2023-10-13T14:28:02;9.48;;;3.83;;
74241;SDS011;62599;49.146;10.426;2023-10-13T14:30:31;5.25;;;2.72;;
74241;SDS011;62599;49.146;10.426;2023-10-13T14:32:57;16.88;;;3.42;;
74241;SDS011;62599;49.146;10.426;2023-10-13T14:35:26;6.63;;;3.13;;
74241;SDS011;62599;49.146;10.426;2023-10-13T14:37:52;8.95;;;2.88;;
74241;SDS011;62599;49.146;10.426;2023-10-13T14:40:17;12.98;;;2.85;;
74241;SDS011;62599;49.146;10.426;2023-10-13T14:42:46;6.15;;;2.70;;
74241;SDS011;62599;49.146;10.426;2023-10-13T14:45:14;6.80;;;2.60;;
74241;SDS011;62599;49.146;10.426;2023-10-13T14:47:41;6.68;;;3.22;;
74241;SDS011;62599;49.146;10.426;2023-10-13T14:50:07;12.93;;;2.63;;
74241;SDS011;62599;49.146;10.426;2023-10-13T14:52:55;4.07;;;2.30;;
74241;SDS011;62599;49.146;10.426;2023-10-13T14:55:20;6.30;;;2.37;;
74241;SDS011;62599;49.146;10.426;2023-10-13T14:57:47;6.25;;;3.00;;
74241;SDS011;62599;49.146;10.426;2023-10-13T15:00:14;3.35;;;3.05;;
74241;SDS011;62599;49.146;10.426;2023-10-13T15:02:50;3.65;;;1.83;;
74241;SDS011;62599;49.146;10.426;2023-10-13T15:05:16;3.78;;;2.38;;
74241;SDS011;62599;49.146;10.426;2023-10-13T15:07:43;5.15;;;2.42;;
74241;SDS011;62599;49.146;10.426;2023-10-13T15:10:10;5.70;;;2.70;;
74241;SDS011;62599;49.146;10.426;2023-10-13T15:12:44;6.13;;;2.42;;
74241;SDS011;62599;49.146;10.426;2023-10-13T15:15:10;3.55;;;2.15;;
74241;SDS011;62599;49.146;10.426;2023-10-13T15:17:39;7.68;;;2.75;;
74241;SDS011;62599;49.146;10.426;2023-10-13T15:20:05;3.83;;;2.33;;
74241;SDS011;62599;49.146;10.426;2023-10-13T15:22:33;4.20;;;2.42;;
74241;SDS011;62599;49.146;10.426;2023-10-13T15:25:00;5.47;;;2.47;;
74241;SDS011;62599;49.146;10.426;2023-10-13T15:27:44;9.18;;;2.67;;
74241;SDS011;62599;49.146;10.426;2023-10-13T15:30:15;5.95;;;2.85;;
74241;SDS011;62599;49.146;10.426;2023-10-13T15:32:48;3.45;;;3.15;;
74241;SDS011;62599;49.146;10.426;2023-10-13T15:35:14;6.20;;;2.13;;
74241;SDS011;62599;49.146;10.426;2023-10-13T15:37:41;4.35;;;2.42;;
74241;SDS011;62599;49.146;10.426;2023-10-13T15:40:07;3.85;;;1.80;;
74241;SDS011;62599;49.146;10.426;2023-10-13T15:42:40;7.25;;;1.90;;
74241;SDS011;62599;49.146;10.426;2023-10-13T15:45:06;4.28;;;2.40;;
74241;SDS011;62599;49.146;10.426;2023-10-13T15:47:41;4.65;;;2.67;;
74241;SDS011;62599;49.146;10.426;2023-10-13T15:50:16;5.22;;;2.95;;
74241;SDS011;62599;49.146;10.426;2023-10-13T15:52:48;7.88;;;3.35;;
74241;SDS011;62599;49.146;10.426;2023-10-13T15:55:14;5.43;;;2.13;;
74241;SDS011;62599;49.146;10.426;2023-10-13T15:57:42;5.10;;;2.08;;
74241;SDS011;62599;49.146;10.426;2023-10-13T16:00:10;7.63;;;2.95;;
74241;SDS011;62599;49.146;10.426;2023-10-13T16:02:49;9.07;;;2.20;;
74241;SDS011;62599;49.146;10.426;2023-10-13T16:05:15;6.53;;;3.10;;
74241;SDS011;62599;49.146;10.426;2023-10-13T16:07:44;3.45;;;2.22;;
74241;SDS011;62599;49.146;10.426;2023-10-13T16:10:10;7.55;;;2.40;;
74241;SDS011;62599;49.146;10.426;2023-10-13T16:12:39;4.05;;;2.67;;
74241;SDS011;62599;49.146;10.426;2023-10-13T16:15:05;4.18;;;1.90;;
74241;SDS011;62599;49.146;10.426;2023-10-13T16:17:33;4.05;;;1.92;;
74241;SDS011;62599;49.146;10.426;2023-10-13T16:19:58;5.78;;;2.38;;
74241;SDS011;62599;49.146;10.426;2023-10-13T16:22:23;4.60;;;2.40;;
74241;SDS011;62599;49.146;10.426;2023-10-13T16:25:02;4.43;;;2.33;;
74241;SDS011;62599;49.146;10.426;2023-10-13T16:27:36;4.65;;;2.38;;
74241;SDS011;62599;49.146;10.426;2023-10-13T16:30:05;4.40;;;2.00;;
74241;SDS011;62599;49.146;10.426;2023-10-13T16:32:34;5.53;;;2.15;;
74241;SDS011;62599;49.146;10.426;2023-10-13T16:35:00;8.88;;;2.17;;
74241;SDS011;62599;49.146;10.426;2023-10-13T16:37:26;5.47;;;2.22;;
74241;SDS011;62599;49.146;10.426;2023-10-13T16:39:51;4.93;;;2.33;;
74241;SDS011;62599;49.146;10.426;2023-10-13T16:42:18;9.18;;;2.30;;
74241;SDS011;62599;49.146;10.426;2023-10-13T16:44:44;7.00;;;2.08;;
74241;SDS011;62599;49.146;10.426;2023-10-13T16:47:09;2.17;;;1.87;;